Weather History for Atka, AK

Change the Weather History Date:

Wednesday, January 15, 2014

  Actual Average (PADK) Record (PADK)
Temperature  
Mean Temperature 32 °F -  
Max Temperature 37 °F 35 °F 43 °F (1950)
Min Temperature 26 °F 27 °F 12 °F (1983)
Degree Days  
Heating Degree Days 34    
Moisture  
Dew Point 23 °F    
Average Humidity 68    
Maximum Humidity 87    
Minimum Humidity 52    
Precipitation  
Precipitation 0.00 in - - ()
Sea Level Pressure  
Sea Level Pressure 29.36 in    
Wind  
Wind Speed 13 mph (East)    
Max Wind Speed 22 mph    
Max Gust Speed 29 mph    
Visibility 9 miles    
Events      
Averages and records for this station are not official NWS values.
T = Trace of Precipitation, MM = Missing Value Source: NWS Daily Summary

Daily Weather History Graph

Daily Weather History Graph

Search for Another Location

Airport:

Trip Planner

Search our weather history database for the weather conditions in past years. The results will help you decide how hot, cold, wet, or windy it might be!

Date:

Astronomy

Jan. 15, 2014 Rise Set
Actual Time 9:38 AM HAST 5:54 PM HAST
Civil Twilight 8:59 AM HAST 6:33 PM HAST
Nautical Twilight 8:16 AM HAST 7:16 PM HAST
Astronomical Twilight 7:36 AM HAST 7:57 PM HAST
Moon 6:14 PM HAST (1/15) 8:56 AM HAST (1/15)
Length of Visible Light 9h 34m
Length of Day
8h 16m
Full, 100% of the Moon is Illuminated
Jan 15
Full
Jan 15
Full
Jan 23
Last Quarter
Jan 30
New
Feb 6
First Quarter

Hourly Weather History & Observations

Time (HAST) Temp. Windchill Dew Point Humidity Pressure Visibility Wind Dir Wind Speed Gust Speed Precip Events Conditions
12:16 AM 33.8 °F 24.8 °F 28.4 °F 81% 29.34 in 3.0 mi ESE 12.7 mph 19.6 mph N/A   Overcast
12:36 AM 33.8 °F 25.3 °F 28.4 °F 81% 29.34 in 1.5 mi ESE 11.5 mph - N/A   Overcast
12:56 AM 33.8 °F 23.2 °F 30.2 °F 87% 29.34 in 4.0 mi East 17.3 mph 23.0 mph N/A   Overcast
1:16 AM 33.8 °F 25.3 °F 28.4 °F 81% 29.34 in 1.8 mi East 11.5 mph - N/A   Overcast
1:36 AM 33.8 °F 24.8 °F 28.4 °F 81% 29.34 in 2.5 mi East 12.7 mph 20.7 mph N/A   Overcast
1:56 AM 33.8 °F 24.8 °F 28.4 °F 81% 29.34 in 1.5 mi ESE 12.7 mph - N/A   Overcast
2:16 AM 33.8 °F 26.4 °F 28.4 °F 81% 29.34 in 2.0 mi East 9.2 mph - N/A   Overcast
2:36 AM 33.8 °F 25.3 °F 28.4 °F 81% 29.34 in 5.0 mi East 11.5 mph - N/A   Overcast
2:56 AM 33.8 °F 24.8 °F 26.6 °F 75% 29.34 in 3.0 mi SE 12.7 mph - N/A   Overcast
3:16 AM 33.8 °F 30.8 °F 28.4 °F 81% 29.34 in 2.0 mi SSE 3.5 mph - N/A   Overcast
3:36 AM 33.8 °F - 28.4 °F 81% 29.34 in 5.0 mi Calm Calm - N/A   Overcast
3:56 AM 33.8 °F 28.6 °F 28.4 °F 81% 29.34 in 9.0 mi South 5.8 mph - N/A   Overcast
4:16 AM 33.8 °F 27.7 °F 28.4 °F 81% 29.34 in 10.0 mi SSE 6.9 mph - N/A   Overcast
4:36 AM 33.8 °F 27.7 °F 26.6 °F 75% 29.34 in 10.0 mi SE 6.9 mph - N/A   Mostly Cloudy
4:56 AM 35.6 °F 24.5 °F 26.6 °F 70% 29.34 in 10.0 mi East 20.7 mph - N/A   Scattered Clouds
5:16 AM 35.6 °F 26.6 °F 26.6 °F 70% 29.34 in 7.0 mi East 13.8 mph - N/A   Mostly Cloudy
5:36 AM 35.6 °F 27.1 °F 26.6 °F 70% 29.34 in 10.0 mi East 12.7 mph - N/A   Overcast
5:56 AM 37.4 °F 27.2 °F 26.6 °F 65% 29.33 in 10.0 mi East 19.6 mph - N/A   Overcast
6:16 AM 37.4 °F 26.9 °F 24.8 °F 60% 29.33 in 10.0 mi East 20.7 mph 26.5 mph N/A   Overcast
6:36 AM 37.4 °F 27.2 °F 24.8 °F 60% 29.33 in 10.0 mi East 19.6 mph 24.2 mph N/A   Overcast
6:56 AM 37.4 °F 28.2 °F 23.0 °F 56% 29.33 in 10.0 mi East 16.1 mph 23.0 mph N/A   Overcast
7:16 AM 37.4 °F 27.2 °F 21.2 °F 52% 29.33 in 10.0 mi East 19.6 mph 25.3 mph N/A   Overcast
7:36 AM 35.6 °F 27.5 °F 26.6 °F 70% 29.34 in 10.0 mi ESE 11.5 mph - N/A   Overcast
7:56 AM 35.6 °F 24.5 °F 23.0 °F 60% 29.34 in 10.0 mi ENE 20.7 mph - N/A   Overcast
8:16 AM 35.6 °F 24.2 °F 26.6 °F 70% 29.34 in 10.0 mi ENE 21.9 mph 26.5 mph N/A   Overcast
8:36 AM 35.6 °F 24.2 °F 26.6 °F 70% 29.35 in 10.0 mi ENE 21.9 mph 26.5 mph N/A   Overcast
8:56 AM 33.8 °F 21.9 °F 26.6 °F 75% 29.35 in 10.0 mi ENE 21.9 mph 28.8 mph N/A   Overcast
9:16 AM 32.0 °F 21.2 °F 26.6 °F 80% 29.36 in 2.0 mi East 16.1 mph - N/A   Overcast
9:36 AM 33.8 °F 23.9 °F 26.6 °F 75% 29.37 in 5.0 mi ENE 15.0 mph - N/A   Mostly Cloudy
9:56 AM 33.8 °F 24.8 °F 26.6 °F 75% 29.37 in 10.0 mi ENE 12.7 mph 18.4 mph N/A   Overcast
10:16 AM 35.6 °F 25.5 °F 24.8 °F 65% 29.37 in 10.0 mi ENE 17.3 mph 26.5 mph N/A   Overcast
10:36 AM 35.6 °F 24.5 °F 24.8 °F 65% 29.37 in 10.0 mi ENE 20.7 mph 24.2 mph N/A   Overcast
10:56 AM 33.8 °F 23.5 °F 24.8 °F 70% 29.38 in 10.0 mi ENE 16.1 mph 23.0 mph N/A   Mostly Cloudy
11:16 AM 33.8 °F 22.8 °F 24.8 °F 70% 29.37 in 10.0 mi ENE 18.4 mph - N/A   Scattered Clouds
11:36 AM 35.6 °F 24.2 °F 24.8 °F 65% 29.37 in 10.0 mi ENE 21.9 mph - N/A   Mostly Cloudy
11:56 AM 33.8 °F 22.5 °F 24.8 °F 70% 29.37 in 10.0 mi ENE 19.6 mph 25.3 mph N/A   Overcast
12:16 PM 33.8 °F 22.2 °F 23.0 °F 65% 29.37 in 10.0 mi ENE 20.7 mph 26.5 mph N/A   Overcast
12:36 PM 33.8 °F 23.9 °F 23.0 °F 65% 29.37 in 10.0 mi ENE 15.0 mph - N/A   Overcast
12:56 PM 33.8 °F 22.2 °F 21.2 °F 60% 29.37 in 10.0 mi ENE 20.7 mph 24.2 mph N/A   Overcast
1:16 PM 33.8 °F 23.5 °F 21.2 °F 60% 29.36 in 10.0 mi East 16.1 mph 21.9 mph N/A   Overcast
1:36 PM 33.8 °F 23.2 °F 21.2 °F 60% 29.36 in 10.0 mi ENE 17.3 mph 20.7 mph N/A   Overcast
1:56 PM 33.8 °F 23.5 °F 21.2 °F 60% 29.35 in 10.0 mi East 16.1 mph 20.7 mph N/A   Overcast
2:16 PM 33.8 °F 24.8 °F 21.2 °F 60% 29.35 in 10.0 mi ENE 12.7 mph 18.4 mph N/A   Overcast
2:36 PM 33.8 °F 25.8 °F 21.2 °F 60% 29.34 in 10.0 mi ENE 10.4 mph - N/A   Overcast
2:56 PM 33.8 °F 25.8 °F 21.2 °F 60% 29.34 in 10.0 mi ENE 10.4 mph - N/A   Overcast
3:16 PM 33.8 °F 23.5 °F 21.2 °F 60% 29.34 in 10.0 mi East 16.1 mph 19.6 mph N/A   Overcast
3:36 PM 33.8 °F 23.5 °F 21.2 °F 60% 29.33 in 10.0 mi East 16.1 mph - N/A   Scattered Clouds
3:56 PM 33.8 °F 25.3 °F 21.2 °F 60% 29.34 in 10.0 mi East 11.5 mph - N/A   Clear
4:16 PM 33.8 °F 24.8 °F 19.4 °F 56% 29.34 in 10.0 mi East 12.7 mph - N/A   Clear
4:36 PM 33.8 °F 21.9 °F 21.2 °F 60% 29.33 in 10.0 mi ENE 21.9 mph 27.6 mph N/A   Clear
4:56 PM 33.8 °F 23.5 °F 21.2 °F 60% 29.35 in 10.0 mi East 16.1 mph 23.0 mph N/A   Clear
5:16 PM 33.8 °F 23.9 °F 21.2 °F 60% 29.35 in 10.0 mi East 15.0 mph 23.0 mph N/A   Clear
5:36 PM 32.0 °F 20.8 °F 21.2 °F 64% 29.35 in 10.0 mi ENE 17.3 mph 27.6 mph N/A   Clear
5:56 PM 32.0 °F 22.1 °F 21.2 °F 64% 29.36 in 10.0 mi ENE 13.8 mph 20.7 mph N/A   Clear
6:16 PM 32.0 °F 21.6 °F 21.2 °F 64% 29.37 in 10.0 mi ENE 15.0 mph 21.9 mph N/A   Partly Cloudy
6:36 PM 30.2 °F 21.3 °F 21.2 °F 69% 29.37 in 10.0 mi ENE 10.4 mph 18.4 mph N/A   Clear
6:56 PM 32.0 °F 22.1 °F 19.4 °F 60% 29.37 in 10.0 mi ENE 13.8 mph 24.2 mph N/A   Clear
7:16 PM 32.0 °F 21.6 °F 19.4 °F 60% 29.38 in 10.0 mi East 15.0 mph 19.6 mph N/A   Clear
7:36 PM 30.2 °F 20.2 °F 21.2 °F 69% 29.38 in 10.0 mi ENE 12.7 mph 17.3 mph N/A   Scattered Clouds
7:56 PM 30.2 °F 21.9 °F 21.2 °F 69% 29.39 in 10.0 mi ENE 9.2 mph - N/A   Partly Cloudy
8:16 PM 30.2 °F 22.6 °F 19.4 °F 64% 29.39 in 10.0 mi ENE 8.1 mph - N/A   Partly Cloudy
8:36 PM 30.2 °F 22.6 °F 19.4 °F 64% 29.39 in 10.0 mi NE 8.1 mph - N/A   Partly Cloudy
8:56 PM 30.2 °F - 19.4 °F 64% 29.40 in 10.0 mi Calm Calm - N/A   Scattered Clouds
9:16 PM 30.2 °F 23.4 °F 19.4 °F 64% 29.40 in 10.0 mi NE 6.9 mph - N/A   Scattered Clouds
9:36 PM 30.2 °F 19.8 °F 21.2 °F 69% 29.40 in 10.0 mi NE 13.8 mph 18.4 mph N/A   Mostly Cloudy
9:56 PM 30.2 °F 23.4 °F 19.4 °F 64% 29.40 in 10.0 mi NE 6.9 mph - N/A   Mostly Cloudy
10:16 PM 30.2 °F 22.6 °F 19.4 °F 64% 29.40 in 10.0 mi ENE 8.1 mph - N/A   Partly Cloudy
10:36 PM 30.2 °F 23.4 °F 19.4 °F 64% 29.40 in 10.0 mi NE 6.9 mph - N/A   Clear
10:56 PM 30.2 °F 22.6 °F 17.6 °F 60% 29.40 in 10.0 mi East 8.1 mph - N/A   Clear
11:16 PM 28.4 °F 24.6 °F 17.6 °F 64% 29.40 in 10.0 mi NNE 3.5 mph - N/A   Clear
11:36 PM 26.6 °F - 15.8 °F 64% 29.41 in 10.0 mi Calm Calm - N/A   Clear
11:56 PM 28.4 °F - 17.6 °F 64% 29.41 in 10.0 mi Calm Calm - N/A   Clear